sensor_id;sensor_type;location;lat;lon;timestamp;pressure;altitude;pressure_sealevel;temperature;humidity
60611;BME280;46439;51.164;13.572;2023-02-18T00:01:31;100259.45;;;9.50;85.11
60611;BME280;46439;51.164;13.572;2023-02-18T00:04:00;100259.33;;;9.48;85.11
60611;BME280;46439;51.164;13.572;2023-02-18T00:06:30;100260.27;;;9.46;85.01
60611;BME280;46439;51.164;13.572;2023-02-18T00:09:00;100263.15;;;9.44;85.01
60611;BME280;46439;51.164;13.572;2023-02-18T00:11:31;100258.63;;;9.41;84.89
60611;BME280;46439;51.164;13.572;2023-02-18T00:14:02;100255.96;;;9.37;84.90
60611;BME280;46439;51.164;13.572;2023-02-18T00:16:31;100258.30;;;9.34;84.84
60611;BME280;46439;51.164;13.572;2023-02-18T00:19:06;100262.30;;;9.32;84.74
60611;BME280;46439;51.164;13.572;2023-02-18T00:21:36;100254.08;;;9.28;84.71
60611;BME280;46439;51.164;13.572;2023-02-18T00:24:07;100249.21;;;9.23;84.76
60611;BME280;46439;51.164;13.572;2023-02-18T00:26:36;100253.30;;;9.20;84.70
60611;BME280;46439;51.164;13.572;2023-02-18T00:29:09;100261.29;;;9.19;84.68
60611;BME280;46439;51.164;13.572;2023-02-18T00:31:39;100256.35;;;9.17;84.63
60611;BME280;46439;51.164;13.572;2023-02-18T00:34:09;100263.55;;;9.13;84.64
60611;BME280;46439;51.164;13.572;2023-02-18T00:36:38;100259.23;;;9.12;84.46
60611;BME280;46439;51.164;13.572;2023-02-18T00:39:08;100265.10;;;9.09;84.47
60611;BME280;46439;51.164;13.572;2023-02-18T00:41:37;100271.39;;;9.07;84.73
60611;BME280;46439;51.164;13.572;2023-02-18T00:44:07;100270.71;;;9.07;84.57
60611;BME280;46439;51.164;13.572;2023-02-18T00:46:36;100276.84;;;9.06;84.73
60611;BME280;46439;51.164;13.572;2023-02-18T00:49:05;100283.23;;;9.05;84.79
60611;BME280;46439;51.164;13.572;2023-02-18T00:51:34;100286.73;;;9.04;84.54
60611;BME280;46439;51.164;13.572;2023-02-18T00:54:03;100290.77;;;9.04;84.79
60611;BME280;46439;51.164;13.572;2023-02-18T00:56:32;100285.52;;;9.02;84.77
60611;BME280;46439;51.164;13.572;2023-02-18T00:59:01;100285.88;;;9.02;84.78
60611;BME280;46439;51.164;13.572;2023-02-18T01:01:29;100288.42;;;9.04;84.68
60611;BME280;46439;51.164;13.572;2023-02-18T01:03:58;100293.20;;;9.04;84.80
60611;BME280;46439;51.164;13.572;2023-02-18T01:06:27;100293.63;;;9.02;85.01
60611;BME280;46439;51.164;13.572;2023-02-18T01:08:55;100295.05;;;8.98;84.87
60611;BME280;46439;51.164;13.572;2023-02-18T01:11:24;100293.29;;;8.97;84.69
60611;BME280;46439;51.164;13.572;2023-02-18T01:13:53;100298.21;;;8.92;84.51
60611;BME280;46439;51.164;13.572;2023-02-18T01:16:21;100291.08;;;8.92;84.62
60611;BME280;46439;51.164;13.572;2023-02-18T01:18:50;100288.04;;;8.90;84.52
60611;BME280;46439;51.164;13.572;2023-02-18T01:21:19;100293.87;;;8.86;84.80
60611;BME280;46439;51.164;13.572;2023-02-18T01:23:48;100300.34;;;8.82;84.44
60611;BME280;46439;51.164;13.572;2023-02-18T01:26:17;100294.98;;;8.80;84.57
60611;BME280;46439;51.164;13.572;2023-02-18T01:28:45;100289.52;;;8.78;84.55
60611;BME280;46439;51.164;13.572;2023-02-18T01:31:14;100287.17;;;8.74;84.52
60611;BME280;46439;51.164;13.572;2023-02-18T01:33:43;100286.35;;;8.72;84.61
60611;BME280;46439;51.164;13.572;2023-02-18T01:36:12;100286.98;;;8.71;84.52
60611;BME280;46439;51.164;13.572;2023-02-18T01:38:40;100285.92;;;8.69;84.47
60611;BME280;46439;51.164;13.572;2023-02-18T01:41:09;100290.33;;;8.66;84.45
60611;BME280;46439;51.164;13.572;2023-02-18T01:43:39;100294.04;;;8.65;84.41
60611;BME280;46439;51.164;13.572;2023-02-18T01:46:14;100292.72;;;8.62;84.32
60611;BME280;46439;51.164;13.572;2023-02-18T01:48:45;100293.65;;;8.60;84.25
60611;BME280;46439;51.164;13.572;2023-02-18T01:51:17;100295.60;;;8.62;84.34
60611;BME280;46439;51.164;13.572;2023-02-18T01:53:51;100294.88;;;8.65;84.56
60611;BME280;46439;51.164;13.572;2023-02-18T01:56:25;100295.15;;;8.68;84.68
60611;BME280;46439;51.164;13.572;2023-02-18T01:58:56;100289.27;;;8.70;84.48
60611;BME280;46439;51.164;13.572;2023-02-18T02:01:27;100282.56;;;8.74;84.73
60611;BME280;46439;51.164;13.572;2023-02-18T02:03:56;100279.48;;;8.74;84.69
60611;BME280;46439;51.164;13.572;2023-02-18T02:06:26;100284.16;;;8.72;84.64
60611;BME280;46439;51.164;13.572;2023-02-18T02:08:58;100291.56;;;8.72;84.68
60611;BME280;46439;51.164;13.572;2023-02-18T02:11:43;100291.45;;;8.73;84.65
60611;BME280;46439;51.164;13.572;2023-02-18T02:14:24;100301.44;;;8.75;84.74
60611;BME280;46439;51.164;13.572;2023-02-18T02:17:03;100306.37;;;8.78;84.60
60611;BME280;46439;51.164;13.572;2023-02-18T02:20:09;100299.13;;;8.77;84.83
60611;BME280;46439;51.164;13.572;2023-02-18T02:26:11;100295.39;;;8.76;84.80
60611;BME280;46439;51.164;13.572;2023-02-18T02:29:03;100291.45;;;8.75;84.62
60611;BME280;46439;51.164;13.572;2023-02-18T02:34:45;100292.61;;;8.63;84.44
60611;BME280;46439;51.164;13.572;2023-02-18T02:37:20;100286.44;;;8.59;84.38
60611;BME280;46439;51.164;13.572;2023-02-18T02:40:00;100291.27;;;8.57;84.40
60611;BME280;46439;51.164;13.572;2023-02-18T02:42:42;100292.16;;;8.54;84.37
60611;BME280;46439;51.164;13.572;2023-02-18T02:45:20;100294.33;;;8.50;84.24
60611;BME280;46439;51.164;13.572;2023-02-18T02:47:56;100293.83;;;8.50;84.24
60611;BME280;46439;51.164;13.572;2023-02-18T02:50:32;100291.77;;;8.49;84.21
60611;BME280;46439;51.164;13.572;2023-02-18T02:53:08;100278.91;;;8.46;84.25
60611;BME280;46439;51.164;13.572;2023-02-18T02:55:38;100281.61;;;8.44;84.29
60611;BME280;46439;51.164;13.572;2023-02-18T02:58:08;100281.21;;;8.43;84.00
60611;BME280;46439;51.164;13.572;2023-02-18T03:00:46;100277.95;;;8.43;84.11
60611;BME280;46439;51.164;13.572;2023-02-18T03:03:40;100279.83;;;8.44;84.19
60611;BME280;46439;51.164;13.572;2023-02-18T03:06:31;100274.95;;;8.44;84.37
60611;BME280;46439;51.164;13.572;2023-02-18T03:09:09;100277.04;;;8.45;84.08
60611;BME280;46439;51.164;13.572;2023-02-18T03:11:46;100279.42;;;8.44;84.22
60611;BME280;46439;51.164;13.572;2023-02-18T03:14:24;100282.69;;;8.44;84.35
60611;BME280;46439;51.164;13.572;2023-02-18T03:17:00;100289.95;;;8.45;84.30
60611;BME280;46439;51.164;13.572;2023-02-18T03:19:34;100284.96;;;8.47;84.28
60611;BME280;46439;51.164;13.572;2023-02-18T03:22:08;100277.06;;;8.47;84.15
60611;BME280;46439;51.164;13.572;2023-02-18T03:24:41;100277.92;;;8.49;84.22
60611;BME280;46439;51.164;13.572;2023-02-18T03:27:15;100277.52;;;8.50;84.37
60611;BME280;46439;51.164;13.572;2023-02-18T03:29:47;100279.48;;;8.50;84.44
60611;BME280;46439;51.164;13.572;2023-02-18T03:32:19;100279.21;;;8.51;84.24
60611;BME280;46439;51.164;13.572;2023-02-18T03:34:52;100282.12;;;8.50;84.27
60611;BME280;46439;51.164;13.572;2023-02-18T03:37:22;100280.48;;;8.50;84.27
60611;BME280;46439;51.164;13.572;2023-02-18T03:39:54;100276.31;;;8.51;84.31
60611;BME280;46439;51.164;13.572;2023-02-18T03:42:27;100280.41;;;8.53;84.44
60611;BME280;46439;51.164;13.572;2023-02-18T03:44:54;100280.26;;;8.56;84.43
60611;BME280;46439;51.164;13.572;2023-02-18T03:47:23;100277.96;;;8.56;84.37
60611;BME280;46439;51.164;13.572;2023-02-18T03:49:52;100275.46;;;8.54;84.15
60611;BME280;46439;51.164;13.572;2023-02-18T03:52:20;100274.15;;;8.53;84.19
60611;BME280;46439;51.164;13.572;2023-02-18T03:54:49;100275.26;;;8.52;84.11
60611;BME280;46439;51.164;13.572;2023-02-18T03:57:18;100274.58;;;8.54;84.54
60611;BME280;46439;51.164;13.572;2023-02-18T03:59:46;100275.48;;;8.55;84.44
60611;BME280;46439;51.164;13.572;2023-02-18T04:02:15;100279.52;;;8.56;84.34
60611;BME280;46439;51.164;13.572;2023-02-18T04:04:43;100275.27;;;8.56;84.47
60611;BME280;46439;51.164;13.572;2023-02-18T04:07:11;100283.88;;;8.56;84.42
60611;BME280;46439;51.164;13.572;2023-02-18T04:09:40;100289.23;;;8.56;84.41
60611;BME280;46439;51.164;13.572;2023-02-18T04:12:09;100293.08;;;8.57;84.34
60611;BME280;46439;51.164;13.572;2023-02-18T04:14:37;100289.55;;;8.58;84.29
60611;BME280;46439;51.164;13.572;2023-02-18T04:17:06;100283.27;;;8.58;84.46
60611;BME280;46439;51.164;13.572;2023-02-18T04:19:34;100282.18;;;8.56;84.39
60611;BME280;46439;51.164;13.572;2023-02-18T04:22:03;100280.21;;;8.55;84.24
60611;BME280;46439;51.164;13.572;2023-02-18T04:24:31;100281.13;;;8.54;84.27
60611;BME280;46439;51.164;13.572;2023-02-18T04:27:00;100287.30;;;8.55;84.06
60611;BME280;46439;51.164;13.572;2023-02-18T04:29:29;100285.51;;;8.57;84.43
60611;BME280;46439;51.164;13.572;2023-02-18T04:31:57;100277.06;;;8.57;84.32
60611;BME280;46439;51.164;13.572;2023-02-18T04:34:26;100279.02;;;8.58;84.49
60611;BME280;46439;51.164;13.572;2023-02-18T04:36:54;100257.02;;;8.57;84.34
60611;BME280;46439;51.164;13.572;2023-02-18T04:39:25;100252.74;;;8.57;84.15
60611;BME280;46439;51.164;13.572;2023-02-18T04:41:53;100266.11;;;8.59;84.50
60611;BME280;46439;51.164;13.572;2023-02-18T04:44:22;100257.05;;;8.62;84.30
60611;BME280;46439;51.164;13.572;2023-02-18T04:46:50;100263.97;;;8.66;84.25
60611;BME280;46439;51.164;13.572;2023-02-18T04:49:18;100268.32;;;8.67;84.57
60611;BME280;46439;51.164;13.572;2023-02-18T04:51:47;100274.02;;;8.68;84.47
60611;BME280;46439;51.164;13.572;2023-02-18T04:54:16;100279.69;;;8.67;84.36
60611;BME280;46439;51.164;13.572;2023-02-18T04:56:45;100276.54;;;8.68;84.35
60611;BME280;46439;51.164;13.572;2023-02-18T04:59:13;100278.08;;;8.69;84.40
60611;BME280;46439;51.164;13.572;2023-02-18T05:01:42;100283.54;;;8.68;84.39
60611;BME280;46439;51.164;13.572;2023-02-18T05:04:10;100276.09;;;8.67;84.46
60611;BME280;46439;51.164;13.572;2023-02-18T05:06:39;100271.01;;;8.65;84.32
60611;BME280;46439;51.164;13.572;2023-02-18T05:09:07;100269.55;;;8.66;84.40
60611;BME280;46439;51.164;13.572;2023-02-18T05:11:36;100264.06;;;8.63;84.31
60611;BME280;46439;51.164;13.572;2023-02-18T05:14:04;100263.35;;;8.63;84.22
60611;BME280;46439;51.164;13.572;2023-02-18T05:16:33;100259.93;;;8.63;84.28
60611;BME280;46439;51.164;13.572;2023-02-18T05:19:02;100255.85;;;8.65;84.12
60611;BME280;46439;51.164;13.572;2023-02-18T05:21:31;100257.23;;;8.65;84.32
60611;BME280;46439;51.164;13.572;2023-02-18T05:23:59;100252.55;;;8.67;84.28
60611;BME280;46439;51.164;13.572;2023-02-18T05:26:28;100250.81;;;8.70;84.34
60611;BME280;46439;51.164;13.572;2023-02-18T05:28:56;100249.13;;;8.71;84.53
60611;BME280;46439;51.164;13.572;2023-02-18T05:31:25;100243.45;;;8.70;84.38
60611;BME280;46439;51.164;13.572;2023-02-18T05:33:53;100243.66;;;8.72;84.49
60611;BME280;46439;51.164;13.572;2023-02-18T05:36:22;100236.73;;;8.74;84.43
60611;BME280;46439;51.164;13.572;2023-02-18T05:38:50;100238.94;;;8.77;84.61
60611;BME280;46439;51.164;13.572;2023-02-18T05:41:19;100233.98;;;8.80;84.72
60611;BME280;46439;51.164;13.572;2023-02-18T05:43:48;100233.95;;;8.82;84.64
60611;BME280;46439;51.164;13.572;2023-02-18T05:46:35;100231.82;;;8.87;84.70
60611;BME280;46439;51.164;13.572;2023-02-18T05:49:04;100236.42;;;8.91;84.88
60611;BME280;46439;51.164;13.572;2023-02-18T05:51:32;100229.84;;;8.94;84.77
60611;BME280;46439;51.164;13.572;2023-02-18T05:54:01;100232.80;;;8.98;84.87
60611;BME280;46439;51.164;13.572;2023-02-18T05:56:29;100230.28;;;9.03;85.03
60611;BME280;46439;51.164;13.572;2023-02-18T05:58:58;100226.36;;;9.01;84.85
60611;BME280;46439;51.164;13.572;2023-02-18T06:01:26;100223.83;;;9.00;84.83
60611;BME280;46439;51.164;13.572;2023-02-18T06:03:55;100221.02;;;9.03;84.72
60611;BME280;46439;51.164;13.572;2023-02-18T06:06:23;100218.36;;;9.02;84.96
60611;BME280;46439;51.164;13.572;2023-02-18T06:08:52;100215.94;;;9.01;84.90
60611;BME280;46439;51.164;13.572;2023-02-18T06:11:20;100219.44;;;9.06;84.86
60611;BME280;46439;51.164;13.572;2023-02-18T06:13:49;100220.95;;;9.10;84.95
60611;BME280;46439;51.164;13.572;2023-02-18T06:16:17;100222.09;;;9.16;85.32
60611;BME280;46439;51.164;13.572;2023-02-18T06:18:45;100220.80;;;9.22;85.26
60611;BME280;46439;51.164;13.572;2023-02-18T06:21:14;100214.70;;;9.25;85.40
60611;BME280;46439;51.164;13.572;2023-02-18T06:23:42;100213.10;;;9.28;85.38
60611;BME280;46439;51.164;13.572;2023-02-18T06:26:11;100212.92;;;9.30;85.38
60611;BME280;46439;51.164;13.572;2023-02-18T06:28:39;100215.40;;;9.34;85.60
60611;BME280;46439;51.164;13.572;2023-02-18T06:31:08;100217.36;;;9.39;85.48
60611;BME280;46439;51.164;13.572;2023-02-18T06:33:37;100219.45;;;9.41;85.58
60611;BME280;46439;51.164;13.572;2023-02-18T06:36:07;100213.51;;;9.41;85.55
60611;BME280;46439;51.164;13.572;2023-02-18T06:38:39;100213.77;;;9.40;85.52
60611;BME280;46439;51.164;13.572;2023-02-18T06:41:08;100213.77;;;9.36;85.38
60611;BME280;46439;51.164;13.572;2023-02-18T06:43:37;100205.44;;;9.36;85.47
60611;BME280;46439;51.164;13.572;2023-02-18T06:46:07;100196.99;;;9.36;85.60
60611;BME280;46439;51.164;13.572;2023-02-18T06:48:35;100203.14;;;9.36;85.30
60611;BME280;46439;51.164;13.572;2023-02-18T06:51:06;100201.77;;;9.40;85.44
60611;BME280;46439;51.164;13.572;2023-02-18T06:53:34;100201.68;;;9.46;85.70
60611;BME280;46439;51.164;13.572;2023-02-18T06:56:03;100201.38;;;9.44;85.51
60611;BME280;46439;51.164;13.572;2023-02-18T06:58:32;100195.40;;;9.36;85.34
60611;BME280;46439;51.164;13.572;2023-02-18T07:01:01;100189.92;;;9.28;85.10
60611;BME280;46439;51.164;13.572;2023-02-18T07:03:30;100193.26;;;9.28;85.13
60611;BME280;46439;51.164;13.572;2023-02-18T07:05:58;100190.81;;;9.21;84.98
60611;BME280;46439;51.164;13.572;2023-02-18T07:08:27;100190.81;;;9.17;84.84
60611;BME280;46439;51.164;13.572;2023-02-18T07:10:57;100186.11;;;9.14;84.89
60611;BME280;46439;51.164;13.572;2023-02-18T07:13:26;100179.76;;;9.13;84.88
60611;BME280;46439;51.164;13.572;2023-02-18T07:15:55;100175.40;;;9.12;84.90
60611;BME280;46439;51.164;13.572;2023-02-18T07:18:23;100174.70;;;9.13;84.96
60611;BME280;46439;51.164;13.572;2023-02-18T07:20:51;100169.16;;;9.14;84.80
60611;BME280;46439;51.164;13.572;2023-02-18T07:23:20;100163.69;;;9.20;85.29
60611;BME280;46439;51.164;13.572;2023-02-18T07:25:48;100158.38;;;9.28;85.48
60611;BME280;46439;51.164;13.572;2023-02-18T07:28:17;100161.01;;;9.33;85.67
60611;BME280;46439;51.164;13.572;2023-02-18T07:30:45;100161.66;;;9.36;85.76
60611;BME280;46439;51.164;13.572;2023-02-18T07:33:14;100152.96;;;9.35;85.59
60611;BME280;46439;51.164;13.572;2023-02-18T07:35:42;100150.58;;;9.35;85.36
60611;BME280;46439;51.164;13.572;2023-02-18T07:38:11;100144.50;;;9.37;85.76
60611;BME280;46439;51.164;13.572;2023-02-18T07:40:39;100139.60;;;9.39;85.63
60611;BME280;46439;51.164;13.572;2023-02-18T07:43:08;100140.58;;;9.39;85.66
60611;BME280;46439;51.164;13.572;2023-02-18T07:45:38;100132.10;;;9.43;85.86
60611;BME280;46439;51.164;13.572;2023-02-18T07:48:07;100134.99;;;9.47;85.81
60611;BME280;46439;51.164;13.572;2023-02-18T07:50:37;100127.15;;;9.48;85.88
60611;BME280;46439;51.164;13.572;2023-02-18T07:53:06;100128.25;;;9.42;85.62
60611;BME280;46439;51.164;13.572;2023-02-18T07:55:34;100122.57;;;9.42;85.61
60611;BME280;46439;51.164;13.572;2023-02-18T07:58:22;100115.45;;;9.46;85.55
60611;BME280;46439;51.164;13.572;2023-02-18T08:00:51;100109.96;;;9.50;85.85
60611;BME280;46439;51.164;13.572;2023-02-18T08:03:24;100117.62;;;9.56;86.14
60611;BME280;46439;51.164;13.572;2023-02-18T08:05:54;100105.97;;;9.54;85.74
60611;BME280;46439;51.164;13.572;2023-02-18T08:08:25;100104.08;;;9.52;86.03
60611;BME280;46439;51.164;13.572;2023-02-18T08:10:56;100103.16;;;9.58;86.00
60611;BME280;46439;51.164;13.572;2023-02-18T08:13:25;100090.43;;;9.66;86.23
60611;BME280;46439;51.164;13.572;2023-02-18T08:15:55;100079.65;;;9.71;86.40
60611;BME280;46439;51.164;13.572;2023-02-18T08:18:24;100087.13;;;9.77;86.36
60611;BME280;46439;51.164;13.572;2023-02-18T08:20:53;100092.88;;;9.83;86.44
60611;BME280;46439;51.164;13.572;2023-02-18T08:23:23;100080.80;;;9.88;86.71
60611;BME280;46439;51.164;13.572;2023-02-18T08:25:54;100068.96;;;9.90;86.58
60611;BME280;46439;51.164;13.572;2023-02-18T08:28:23;100076.23;;;9.88;86.42
60611;BME280;46439;51.164;13.572;2023-02-18T08:30:53;100075.89;;;9.88;86.64
60611;BME280;46439;51.164;13.572;2023-02-18T08:33:22;100055.22;;;9.91;86.47
60611;BME280;46439;51.164;13.572;2023-02-18T08:35:52;100044.17;;;9.96;86.43
60611;BME280;46439;51.164;13.572;2023-02-18T08:38:22;100039.27;;;9.99;86.64
60611;BME280;46439;51.164;13.572;2023-02-18T08:40:58;100044.43;;;10.02;86.61
60611;BME280;46439;51.164;13.572;2023-02-18T08:43:28;100047.85;;;10.08;86.54
60611;BME280;46439;51.164;13.572;2023-02-18T08:45:57;100046.14;;;10.13;86.92
60611;BME280;46439;51.164;13.572;2023-02-18T08:48:27;100035.23;;;10.21;86.91
60611;BME280;46439;51.164;13.572;2023-02-18T08:50:56;100025.38;;;10.24;87.11
60611;BME280;46439;51.164;13.572;2023-02-18T08:53:25;100021.66;;;10.24;86.95
60611;BME280;46439;51.164;13.572;2023-02-18T08:55:54;100021.28;;;10.25;86.83
60611;BME280;46439;51.164;13.572;2023-02-18T08:58:23;100019.69;;;10.30;86.87
60611;BME280;46439;51.164;13.572;2023-02-18T09:00:51;100011.13;;;10.36;87.05
60611;BME280;46439;51.164;13.572;2023-02-18T09:03:19;100004.85;;;10.34;86.97
60611;BME280;46439;51.164;13.572;2023-02-18T09:05:48;99997.88;;;10.30;86.90
60611;BME280;46439;51.164;13.572;2023-02-18T09:08:17;99993.36;;;10.27;86.82
60611;BME280;46439;51.164;13.572;2023-02-18T09:10:46;99987.38;;;10.25;86.63
60611;BME280;46439;51.164;13.572;2023-02-18T09:13:15;99989.84;;;10.28;86.61
60611;BME280;46439;51.164;13.572;2023-02-18T09:15:43;99984.09;;;10.36;86.99
60611;BME280;46439;51.164;13.572;2023-02-18T09:18:12;99984.02;;;10.38;86.91
60611;BME280;46439;51.164;13.572;2023-02-18T09:20:41;99979.69;;;10.40;87.24
60611;BME280;46439;51.164;13.572;2023-02-18T09:23:10;99977.81;;;10.45;87.16
60611;BME280;46439;51.164;13.572;2023-02-18T09:25:41;99968.54;;;10.49;87.40
60611;BME280;46439;51.164;13.572;2023-02-18T09:28:09;99965.52;;;10.47;87.19
60611;BME280;46439;51.164;13.572;2023-02-18T09:30:39;99956.71;;;10.47;87.01
60611;BME280;46439;51.164;13.572;2023-02-18T09:33:07;99950.45;;;10.52;87.21
60611;BME280;46439;51.164;13.572;2023-02-18T09:35:39;99954.27;;;10.61;87.47
60611;BME280;46439;51.164;13.572;2023-02-18T09:38:07;99947.27;;;10.68;87.59
60611;BME280;46439;51.164;13.572;2023-02-18T09:40:38;99938.08;;;10.70;87.43
60611;BME280;46439;51.164;13.572;2023-02-18T09:43:17;99941.14;;;10.70;87.34
60611;BME280;46439;51.164;13.572;2023-02-18T09:45:46;99933.42;;;10.64;87.04
60611;BME280;46439;51.164;13.572;2023-02-18T09:48:15;99933.94;;;10.59;87.10
60611;BME280;46439;51.164;13.572;2023-02-18T09:50:49;99931.09;;;10.59;86.79
60611;BME280;46439;51.164;13.572;2023-02-18T09:53:22;99928.81;;;10.56;86.97
60611;BME280;46439;51.164;13.572;2023-02-18T09:55:52;99921.70;;;10.56;86.84
60611;BME280;46439;51.164;13.572;2023-02-18T09:58:22;99920.13;;;10.54;86.78
60611;BME280;46439;51.164;13.572;2023-02-18T10:00:58;99915.46;;;10.52;86.67
60611;BME280;46439;51.164;13.572;2023-02-18T10:03:31;99903.96;;;10.51;86.56
60611;BME280;46439;51.164;13.572;2023-02-18T10:06:01;99901.77;;;10.54;86.95
60611;BME280;46439;51.164;13.572;2023-02-18T10:08:34;99899.70;;;10.58;87.01
60611;BME280;46439;51.164;13.572;2023-02-18T10:11:03;99896.14;;;10.59;87.01
60611;BME280;46439;51.164;13.572;2023-02-18T10:13:42;99898.22;;;10.60;86.95
60611;BME280;46439;51.164;13.572;2023-02-18T10:16:16;99892.13;;;10.60;86.76
60611;BME280;46439;51.164;13.572;2023-02-18T10:18:47;99886.38;;;10.61;86.88
60611;BME280;46439;51.164;13.572;2023-02-18T10:21:19;99880.05;;;10.63;86.95
60611;BME280;46439;51.164;13.572;2023-02-18T10:23:55;99878.09;;;10.64;86.99
60611;BME280;46439;51.164;13.572;2023-02-18T10:26:26;99873.51;;;10.67;86.78
60611;BME280;46439;51.164;13.572;2023-02-18T10:28:56;99868.52;;;10.70;87.09
60611;BME280;46439;51.164;13.572;2023-02-18T10:31:29;99868.30;;;10.75;86.98
60611;BME280;46439;51.164;13.572;2023-02-18T10:34:10;99867.31;;;10.78;87.12
60611;BME280;46439;51.164;13.572;2023-02-18T10:36:45;99865.56;;;10.80;87.34
60611;BME280;46439;51.164;13.572;2023-02-18T10:39:37;99862.84;;;10.82;87.20
60611;BME280;46439;51.164;13.572;2023-02-18T10:42:25;99858.63;;;10.83;87.26
60611;BME280;46439;51.164;13.572;2023-02-18T10:45:06;99852.92;;;10.82;87.00
60611;BME280;46439;51.164;13.572;2023-02-18T10:47:41;99844.96;;;10.81;87.05
60611;BME280;46439;51.164;13.572;2023-02-18T10:50:29;99839.70;;;10.82;87.18
60611;BME280;46439;51.164;13.572;2023-02-18T10:53:07;99822.84;;;10.82;87.10
60611;BME280;46439;51.164;13.572;2023-02-18T10:55:38;99813.19;;;10.83;87.17
60611;BME280;46439;51.164;13.572;2023-02-18T10:58:25;99808.18;;;10.85;87.20
60611;BME280;46439;51.164;13.572;2023-02-18T11:00:54;99795.45;;;10.90;87.24
60611;BME280;46439;51.164;13.572;2023-02-18T11:03:25;99792.69;;;10.93;87.32
60611;BME280;46439;51.164;13.572;2023-02-18T11:05:55;99787.14;;;10.98;87.42
60611;BME280;46439;51.164;13.572;2023-02-18T11:08:26;99780.17;;;11.02;87.33
60611;BME280;46439;51.164;13.572;2023-02-18T11:10:56;99777.98;;;11.05;87.43
60611;BME280;46439;51.164;13.572;2023-02-18T11:13:28;99763.23;;;11.08;87.41
60611;BME280;46439;51.164;13.572;2023-02-18T11:16:00;99760.27;;;11.13;87.64
60611;BME280;46439;51.164;13.572;2023-02-18T11:18:37;99753.66;;;11.17;87.84
60611;BME280;46439;51.164;13.572;2023-02-18T11:21:17;99752.68;;;11.22;87.87
60611;BME280;46439;51.164;13.572;2023-02-18T11:23:49;99745.58;;;11.26;87.99
60611;BME280;46439;51.164;13.572;2023-02-18T11:26:20;99751.30;;;11.31;87.95
60611;BME280;46439;51.164;13.572;2023-02-18T11:28:55;99749.91;;;11.36;87.97
60611;BME280;46439;51.164;13.572;2023-02-18T11:31:37;99738.19;;;11.39;88.00
60611;BME280;46439;51.164;13.572;2023-02-18T11:34:15;99734.95;;;11.43;88.12
60611;BME280;46439;51.164;13.572;2023-02-18T11:36:44;99727.45;;;11.48;88.10
60611;BME280;46439;51.164;13.572;2023-02-18T11:39:20;99720.77;;;11.53;88.11
60611;BME280;46439;51.164;13.572;2023-02-18T11:41:55;99720.83;;;11.57;88.25
60611;BME280;46439;51.164;13.572;2023-02-18T11:44:28;99715.93;;;11.60;88.29
60611;BME280;46439;51.164;13.572;2023-02-18T11:46:59;99708.84;;;11.63;88.21
60611;BME280;46439;51.164;13.572;2023-02-18T11:49:30;99706.36;;;11.64;88.33
60611;BME280;46439;51.164;13.572;2023-02-18T11:52:18;99701.32;;;11.66;88.28
60611;BME280;46439;51.164;13.572;2023-02-18T11:55:05;99700.00;;;11.68;88.36
60611;BME280;46439;51.164;13.572;2023-02-18T11:57:42;99695.09;;;11.69;88.40
60611;BME280;46439;51.164;13.572;2023-02-18T12:00:38;99689.00;;;11.71;88.27
60611;BME280;46439;51.164;13.572;2023-02-18T12:03:26;99689.80;;;11.73;88.32
60611;BME280;46439;51.164;13.572;2023-02-18T12:06:01;99687.15;;;11.74;88.26
60611;BME280;46439;51.164;13.572;2023-02-18T12:08:33;99684.74;;;11.74;88.14
60611;BME280;46439;51.164;13.572;2023-02-18T12:11:11;99682.36;;;11.77;88.37
60611;BME280;46439;51.164;13.572;2023-02-18T12:13:47;99688.45;;;11.78;88.40
60611;BME280;46439;51.164;13.572;2023-02-18T12:16:24;99685.60;;;11.79;88.29
60611;BME280;46439;51.164;13.572;2023-02-18T12:19:12;99688.52;;;11.81;
60611;BME280;46439;51.164;13.572;2023-02-18T12:21:54;99688.05;;;11.80;88.39
60611;BME280;46439;51.164;13.572;2023-02-18T12:27:21;99689.23;;;11.69;88.05
60611;BME280;46439;51.164;13.572;2023-02-18T12:30:17;99688.08;;;11.63;87.91
60611;BME280;46439;51.164;13.572;2023-02-18T12:32:54;99686.81;;;11.57;88.03
60611;BME280;46439;51.164;13.572;2023-02-18T12:35:42;99689.14;;;11.51;87.86
60611;BME280;46439;51.164;13.572;2023-02-18T12:38:40;99693.23;;;11.45;87.88
60611;BME280;46439;51.164;13.572;2023-02-18T12:41:29;99701.48;;;11.41;87.85
60611;BME280;46439;51.164;13.572;2023-02-18T12:44:08;99697.47;;;11.38;87.70
60611;BME280;46439;51.164;13.572;2023-02-18T12:46:52;99702.80;;;11.35;87.69
60611;BME280;46439;51.164;13.572;2023-02-18T12:49:37;99702.57;;;11.30;87.69
60611;BME280;46439;51.164;13.572;2023-02-18T12:52:16;99708.08;;;11.26;87.86
60611;BME280;46439;51.164;13.572;2023-02-18T12:54:59;99708.42;;;11.22;87.76
60611;BME280;46439;51.164;13.572;2023-02-18T12:57:42;99708.36;;;11.18;87.61
60611;BME280;46439;51.164;13.572;2023-02-18T13:00:34;99701.80;;;11.14;87.71
60611;BME280;46439;51.164;13.572;2023-02-18T13:03:14;99706.52;;;11.10;87.67
60611;BME280;46439;51.164;13.572;2023-02-18T13:05:59;99697.73;;;11.07;87.55
60611;BME280;46439;51.164;13.572;2023-02-18T13:08:40;99694.42;;;11.04;87.71
60611;BME280;46439;51.164;13.572;2023-02-18T13:11:21;99687.86;;;11.00;87.69
60611;BME280;46439;51.164;13.572;2023-02-18T13:13:59;99682.55;;;11.01;87.81
60611;BME280;46439;51.164;13.572;2023-02-18T13:16:32;99676.98;;;10.99;87.87
60611;BME280;46439;51.164;13.572;2023-02-18T13:19:05;99673.66;;;10.98;87.83
60611;BME280;46439;51.164;13.572;2023-02-18T13:21:37;99672.31;;;10.99;87.83
60611;BME280;46439;51.164;13.572;2023-02-18T13:24:11;99669.40;;;10.99;87.96
60611;BME280;46439;51.164;13.572;2023-02-18T13:26:42;99676.36;;;10.98;87.98